createdAt,value
2023-01-22T00:01:24.664Z,102083.94
2023-01-22T00:03:56.283Z,102078.59
2023-01-22T00:06:24.169Z,102073.53
2023-01-22T00:08:53.171Z,102089.44
2023-01-22T00:11:21.249Z,102080.47
2023-01-22T00:13:52.158Z,102090.87
2023-01-22T00:16:20.646Z,102074.69
2023-01-22T00:18:48.416Z,102073.34
2023-01-22T00:21:16.171Z,102087.87
2023-01-22T00:23:44.393Z,102084.47
2023-01-22T00:26:14.484Z,102083.12
2023-01-22T00:28:45.987Z,102081.19
2023-01-22T00:31:16.292Z,102082.19
2023-01-22T00:33:45.526Z,102081.97
2023-01-22T00:36:20.348Z,102086.19
2023-01-22T00:38:52.369Z,102076.72
2023-01-22T00:41:21.133Z,102075.81
2023-01-22T00:43:51.767Z,102072.94
2023-01-22T00:46:21.322Z,102068.94
2023-01-22T00:48:52.604Z,102077.22
2023-01-22T00:51:23.478Z,102075.06
2023-01-22T00:53:51.706Z,102080.50
2023-01-22T00:56:19.526Z,102069.09
2023-01-22T00:58:50.176Z,102080.47
2023-01-22T01:01:18.639Z,102072.47
2023-01-22T01:03:46.591Z,102069.81
2023-01-22T01:06:17.453Z,102069.06
2023-01-22T01:08:50.355Z,102077.13
2023-01-22T01:11:28.181Z,102072.44
2023-01-22T01:13:56.931Z,102082.13
2023-01-22T01:16:29.515Z,102071.91
2023-01-22T01:19:04.284Z,102077.00
2023-01-22T01:21:32.506Z,102070.94
2023-01-22T01:24:01.354Z,102070.87
2023-01-22T01:26:29.446Z,102059.75
2023-01-22T01:28:57.294Z,102058.62
2023-01-22T01:31:28.867Z,102054.38
2023-01-22T01:33:58.420Z,102060.78
2023-01-22T01:36:47.139Z,102060.34
2023-01-22T01:39:15.357Z,102068.72
2023-01-22T01:41:43.558Z,102065.28
2023-01-22T01:44:20.886Z,102065.16
2023-01-22T01:47:06.163Z,102061.88
2023-01-22T01:49:51.271Z,102063.69
2023-01-22T01:52:20.963Z,102070.28
2023-01-22T01:54:52.785Z,102071.28
2023-01-22T01:57:30.792Z,102060.50
2023-01-22T01:59:59.529Z,102074.44
2023-01-22T02:02:30.547Z,102063.16
2023-01-22T02:04:59.047Z,102075.13
2023-01-22T02:07:26.937Z,102066.56
2023-01-22T02:09:54.934Z,102070.63
2023-01-22T02:12:23.350Z,102076.78
2023-01-22T02:14:51.290Z,102077.94
2023-01-22T02:17:34.352Z,102079.59
2023-01-22T02:20:02.041Z,102081.44
2023-01-22T02:22:33.659Z,102069.09
2023-01-22T02:25:01.718Z,102076.22
2023-01-22T02:27:31.313Z,102076.09
2023-01-22T02:29:59.654Z,102085.91
2023-01-22T02:32:31.040Z,102081.22
2023-01-22T02:34:59.488Z,102084.78
2023-01-22T02:37:27.376Z,102089.94
2023-01-22T02:39:56.021Z,102084.13
2023-01-22T02:42:24.380Z,102085.31
2023-01-22T02:44:53.307Z,102085.09
2023-01-22T02:47:21.225Z,102094.50
2023-01-22T02:49:49.387Z,102091.75
2023-01-22T02:52:17.329Z,102088.16
2023-01-22T02:54:45.871Z,102085.69
2023-01-22T02:57:14.059Z,102089.84
2023-01-22T02:59:41.874Z,102083.72
2023-01-22T03:02:12.003Z,102090.00
2023-01-22T03:04:43.147Z,102088.94
2023-01-22T03:07:14.149Z,102082.56
2023-01-22T03:09:42.480Z,102096.06
2023-01-22T03:12:10.956Z,102095.16
2023-01-22T03:14:57.591Z,102092.25
2023-01-22T03:17:44.466Z,102094.41
2023-01-22T03:20:31.153Z,102094.97
2023-01-22T03:22:59.457Z,102099.97
2023-01-22T03:25:27.284Z,102094.28
2023-01-22T03:28:16.841Z,102094.13
2023-01-22T03:30:46.834Z,102096.31
2023-01-22T03:33:17.709Z,102099.44
2023-01-22T03:35:48.199Z,102106.34
2023-01-22T03:38:16.643Z,102107.59
2023-01-22T03:40:44.626Z,102109.59
2023-01-22T03:43:16.179Z,102102.56
2023-01-22T03:45:44.114Z,102107.66
2023-01-22T03:48:13.072Z,102110.38
2023-01-22T03:50:41.159Z,102108.13
2023-01-22T03:53:09.029Z,102112.56
2023-01-22T03:55:37.375Z,102112.72
2023-01-22T03:58:05.376Z,102121.69
2023-01-22T04:00:33.353Z,102124.19
2023-01-22T04:03:01.884Z,102100.75
2023-01-22T04:05:30.558Z,102111.47
2023-01-22T04:07:58.741Z,102120.03
2023-01-22T04:10:27.414Z,102119.09
2023-01-22T04:12:55.848Z,102117.13
2023-01-22T04:15:24.085Z,102117.41
2023-01-22T04:17:53.990Z,102118.34
2023-01-22T04:20:24.862Z,102121.66
2023-01-22T04:22:53.420Z,102125.09
2023-01-22T04:25:21.607Z,102112.66
2023-01-22T04:27:49.487Z,102126.88
2023-01-22T04:30:18.598Z,102127.06
2023-01-22T04:32:47.211Z,102127.09
2023-01-22T04:35:15.559Z,102132.91
2023-01-22T04:37:44.213Z,102136.38
2023-01-22T04:40:12.582Z,102133.81
2023-01-22T04:42:41.109Z,102141.66
2023-01-22T04:45:10.028Z,102139.72
2023-01-22T04:47:45.950Z,102136.31
2023-01-22T04:50:19.219Z,102139.66
2023-01-22T04:52:48.132Z,102132.38
2023-01-22T04:55:16.481Z,102137.16
2023-01-22T04:57:45.897Z,102144.03
2023-01-22T05:00:17.618Z,102146.44
2023-01-22T05:02:46.172Z,102139.53
2023-01-22T05:05:14.501Z,102137.19
2023-01-22T05:07:45.748Z,102146.56
2023-01-22T05:10:15.064Z,102135.00
2023-01-22T05:12:43.210Z,102142.66
2023-01-22T05:15:23.718Z,102147.06
2023-01-22T05:17:56.891Z,102149.63
2023-01-22T05:20:25.815Z,102154.81
2023-01-22T05:22:56.942Z,102157.25
2023-01-22T05:25:25.048Z,102159.81
2023-01-22T05:27:53.107Z,102159.59
2023-01-22T05:30:22.642Z,102163.09
2023-01-22T05:32:55.472Z,102162.06
2023-01-22T05:35:24.629Z,102169.50
2023-01-22T05:37:52.564Z,102163.50
2023-01-22T05:40:21.213Z,102170.78
2023-01-22T05:42:49.484Z,102181.88
2023-01-22T05:45:17.464Z,102180.19
2023-01-22T05:47:51.261Z,102170.06
2023-01-22T05:50:20.287Z,102158.47
2023-01-22T05:52:48.246Z,102185.59
2023-01-22T05:55:17.390Z,102189.22
2023-01-22T05:57:47.473Z,102191.78
2023-01-22T06:00:18.574Z,102189.34
2023-01-22T06:02:47.659Z,102189.97
2023-01-22T06:05:16.574Z,102204.38
2023-01-22T06:07:48.537Z,102199.22
2023-01-22T06:10:18.199Z,102197.66
2023-01-22T06:12:46.865Z,102196.91
2023-01-22T06:15:15.277Z,102206.16
2023-01-22T06:17:44.614Z,102213.81
2023-01-22T06:20:12.655Z,102206.06
2023-01-22T06:22:41.156Z,102210.59
2023-01-22T06:25:09.773Z,102216.59
2023-01-22T06:27:46.920Z,102217.13
2023-01-22T06:30:15.411Z,102225.19
2023-01-22T06:32:44.505Z,102230.47
2023-01-22T06:35:12.869Z,102229.75
2023-01-22T06:37:41.649Z,102225.16
2023-01-22T06:40:12.704Z,102231.28
2023-01-22T06:42:44.274Z,102238.22
2023-01-22T06:45:12.658Z,102245.00
2023-01-22T06:47:47.531Z,102249.44
2023-01-22T06:50:16.636Z,102237.31
2023-01-22T06:52:44.736Z,102244.28
2023-01-22T06:55:12.850Z,102260.66
2023-01-22T06:57:41.173Z,102263.34
2023-01-22T07:00:11.289Z,102261.69
2023-01-22T07:02:42.156Z,102263.41
2023-01-22T07:05:12.483Z,102250.44
2023-01-22T07:07:41.140Z,102258.47
2023-01-22T07:10:11.620Z,102256.69
2023-01-22T07:12:40.822Z,102270.44
2023-01-22T07:15:10.278Z,102275.59
2023-01-22T07:17:39.203Z,102277.41
2023-01-22T07:20:08.585Z,102275.72
2023-01-22T07:22:37.089Z,102286.88
2023-01-22T07:25:06.745Z,102286.94
2023-01-22T07:27:37.614Z,102289.59
2023-01-22T07:30:07.575Z,102289.53
2023-01-22T07:32:36.689Z,102296.41
2023-01-22T07:35:06.452Z,102298.19
2023-01-22T07:37:34.872Z,102306.78
2023-01-22T07:40:07.429Z,102309.31
2023-01-22T07:42:38.577Z,102311.00
2023-01-22T07:45:09.800Z,102316.25
2023-01-22T07:47:40.153Z,102324.84
2023-01-22T07:50:09.272Z,102335.19
2023-01-22T07:52:38.742Z,102330.88
2023-01-22T07:55:08.146Z,102341.25
2023-01-22T07:57:37.015Z,102332.81
2023-01-22T08:00:07.451Z,102333.72
2023-01-22T08:02:47.429Z,102348.28
2023-01-22T08:05:18.017Z,102341.38
2023-01-22T08:07:47.808Z,102328.53
2023-01-22T08:10:18.109Z,102335.63
2023-01-22T08:12:46.789Z,102343.31
2023-01-22T08:15:16.958Z,102337.28
2023-01-22T08:17:51.621Z,102344.94
2023-01-22T08:20:21.800Z,102350.88
2023-01-22T08:22:51.795Z,102362.13
2023-01-22T08:25:19.678Z,102351.72
2023-01-22T08:27:49.704Z,102356.06
2023-01-22T08:30:20.775Z,102366.41
2023-01-22T08:32:50.855Z,102369.00
2023-01-22T08:35:19.546Z,102369.06
2023-01-22T08:37:49.227Z,102374.31
2023-01-22T08:40:20.068Z,102385.47
2023-01-22T08:42:53.807Z,102382.03
2023-01-22T08:45:23.280Z,102390.53
2023-01-22T08:48:01.259Z,102379.53
2023-01-22T08:50:29.984Z,102383.97
2023-01-22T08:52:59.242Z,102381.44
2023-01-22T08:55:29.989Z,102379.72
2023-01-22T08:57:58.994Z,102384.91
2023-01-22T09:00:30.544Z,102387.50
2023-01-22T09:03:00.277Z,102391.81
2023-01-22T09:05:30.073Z,102385.75
2023-01-22T09:08:03.606Z,102397.84
2023-01-22T09:10:33.627Z,102391.09
2023-01-22T09:13:06.056Z,102389.31
2023-01-22T09:18:22.749Z,102399.72
2023-01-22T09:20:51.088Z,102393.72
2023-01-22T09:23:22.586Z,102396.31
2023-01-22T09:25:51.277Z,102396.37
2023-01-22T09:28:21.326Z,102404.25
2023-01-22T09:30:51.242Z,102410.31
2023-01-22T09:33:21.012Z,102401.72
2023-01-22T09:35:51.665Z,102415.47
2023-01-22T09:38:21.986Z,102412.09
2023-01-22T09:40:58.977Z,102413.00
2023-01-22T09:43:46.177Z,102406.19
2023-01-22T09:46:26.168Z,102417.38
2023-01-22T09:49:00.767Z,102409.69
2023-01-22T09:51:29.957Z,102414.03
2023-01-22T09:54:03.204Z,102414.81
2023-01-22T09:56:39.022Z,102410.53
2023-01-22T09:59:18.905Z,102418.22
2023-01-22T10:01:54.425Z,102406.13
2023-01-22T10:04:41.606Z,102408.81
2023-01-22T10:07:41.873Z,102415.63
2023-01-22T10:10:23.076Z,102420.88
2023-01-22T10:13:08.905Z,102411.53
2023-01-22T10:15:40.238Z,102413.97
2023-01-22T10:18:35.086Z,102425.22
2023-01-22T10:21:07.015Z,102424.41
2023-01-22T10:23:37.625Z,102426.16
2023-01-22T10:26:17.665Z,102426.91
2023-01-22T10:28:52.367Z,102416.59
2023-01-22T10:31:30.541Z,102413.19
2023-01-22T10:34:02.938Z,102424.38
2023-01-22T10:36:33.779Z,102427.78
2023-01-22T10:39:12.333Z,102423.28
2023-01-22T10:41:45.261Z,102430.25
2023-01-22T10:44:26.187Z,102426.91
2023-01-22T10:46:57.531Z,102435.53
2023-01-22T10:49:27.826Z,102427.81
2023-01-22T10:51:59.985Z,102422.69
2023-01-22T10:54:34.409Z,102428.81
2023-01-22T10:57:29.619Z,102413.28
2023-01-22T11:00:22.958Z,102412.41
2023-01-22T11:02:55.218Z,102415.00
2023-01-22T11:05:34.469Z,102417.56
2023-01-22T11:08:15.217Z,102415.88
2023-01-22T11:10:52.595Z,102419.38
2023-01-22T11:13:24.275Z,102413.34
2023-01-22T11:16:00.506Z,102422.00
2023-01-22T11:18:38.851Z,102423.75
2023-01-22T11:21:19.094Z,102424.62
2023-01-22T11:24:25.403Z,102422.87
2023-01-22T11:27:16.415Z,102424.59
2023-01-22T11:30:03.683Z,102420.19
2023-01-22T11:32:58.689Z,102421.81
2023-01-22T11:35:43.373Z,102424.41
2023-01-22T11:38:37.568Z,102420.97
2023-01-22T11:41:32.888Z,102423.59
2023-01-22T11:44:39.174Z,102426.13
2023-01-22T11:47:38.032Z,102424.38
2023-01-22T11:50:45.259Z,102426.13
2023-01-22T11:53:38.879Z,102433.81
2023-01-22T11:56:21.069Z,102428.62
2023-01-22T11:59:11.875Z,102436.25
2023-01-22T12:01:42.650Z,102434.53
2023-01-22T12:04:29.954Z,102435.38
2023-01-22T12:07:48.823Z,102434.75
2023-01-22T12:10:54.880Z,102431.09
2023-01-22T12:13:42.303Z,102433.66
2023-01-22T12:16:34.510Z,102435.28
2023-01-22T12:19:35.671Z,102436.97
2023-01-22T12:22:29.677Z,102433.53
2023-01-22T12:25:21.101Z,102430.97
2023-01-22T12:28:05.447Z,102438.59
2023-01-22T12:30:49.280Z,102432.59
2023-01-22T12:33:22.864Z,102423.94
2023-01-22T12:35:54.498Z,102439.56
2023-01-22T12:38:40.989Z,102436.97
2023-01-22T12:41:36.568Z,102417.75
2023-01-22T12:44:40.453Z,102442.03
2023-01-22T12:47:27.643Z,102440.25
2023-01-22T12:50:04.936Z,102440.16
2023-01-22T12:52:41.238Z,102432.38
2023-01-22T12:55:45.329Z,102429.09
2023-01-22T12:58:28.556Z,102442.81
2023-01-22T13:01:03.997Z,102453.16
2023-01-22T13:03:33.614Z,102441.09
2023-01-22T13:06:04.898Z,102448.72
2023-01-22T13:11:43.213Z,102441.72
2023-01-22T13:14:37.588Z,102443.44
2023-01-22T13:17:27.912Z,102438.97
2023-01-22T13:20:04.543Z,102445.00
2023-01-22T13:22:36.853Z,102452.75
2023-01-22T13:25:05.398Z,102450.31
2023-01-22T13:27:37.429Z,102457.00
2023-01-22T13:30:20.054Z,102463.03
2023-01-22T13:32:51.505Z,102468.16
2023-01-22T13:35:23.252Z,102469.06
2023-01-22T13:37:53.290Z,102464.72
2023-01-22T13:40:25.202Z,102465.50
2023-01-22T13:43:02.981Z,102462.06
2023-01-22T13:45:36.577Z,102467.03
2023-01-22T13:48:10.770Z,102473.16
2023-01-22T13:50:42.463Z,102473.56
2023-01-22T13:53:28.740Z,102475.66
2023-01-22T13:56:00.610Z,102474.22
2023-01-22T13:58:47.112Z,102472.66
2023-01-22T14:01:36.311Z,102469.91
2023-01-22T14:04:13.136Z,102479.62
2023-01-22T14:06:51.913Z,102484.19
2023-01-22T14:09:41.918Z,102483.97
2023-01-22T14:12:20.732Z,102491.91
2023-01-22T14:14:51.641Z,102496.19
2023-01-22T14:17:31.311Z,102484.00
2023-01-22T14:20:01.948Z,102480.13
2023-01-22T14:22:35.986Z,102481.63
2023-01-22T14:25:04.631Z,102488.19
2023-01-22T14:27:52.569Z,102481.37
2023-01-22T14:30:25.156Z,102481.09
2023-01-22T14:32:56.447Z,102477.41
2023-01-22T14:35:29.378Z,102482.97
2023-01-22T14:37:59.868Z,102490.47
2023-01-22T14:40:35.598Z,102489.66
2023-01-22T14:43:08.849Z,102489.94
2023-01-22T14:45:41.688Z,102490.00
2023-01-22T14:48:18.947Z,102491.00
2023-01-22T14:50:50.995Z,102494.13
2023-01-22T14:53:21.193Z,102500.22
2023-01-22T14:55:55.065Z,102494.72
2023-01-22T14:58:26.207Z,102497.09
2023-01-22T15:00:59.612Z,102497.91
2023-01-22T15:06:19.745Z,102506.59
2023-01-22T15:08:55.356Z,102498.38
2023-01-22T15:11:30.382Z,102498.28
2023-01-22T15:13:59.216Z,102499.88
2023-01-22T15:16:36.224Z,102505.63
2023-01-22T15:19:09.352Z,102503.34
2023-01-22T15:21:38.141Z,102498.84
2023-01-22T15:24:10.278Z,102508.06
2023-01-22T15:26:41.096Z,102500.41
2023-01-22T15:29:13.311Z,102511.69
2023-01-22T15:31:48.200Z,102501.63
2023-01-22T15:34:24.581Z,102512.50
2023-01-22T15:36:58.169Z,102512.38
2023-01-22T15:39:29.046Z,102509.62
2023-01-22T15:42:01.727Z,102511.41
2023-01-22T15:44:35.791Z,102515.84
2023-01-22T15:47:08.666Z,102511.41
2023-01-22T15:49:41.441Z,102514.09
2023-01-22T15:52:13.909Z,102517.56
2023-01-22T15:54:48.650Z,102514.81
2023-01-22T15:57:16.492Z,102516.41
2023-01-22T15:59:50.860Z,102514.84
2023-01-22T16:02:27.836Z,102518.16
2023-01-22T16:04:58.885Z,102519.25
2023-01-22T16:07:27.988Z,102513.28
2023-01-22T16:10:03.411Z,102524.38
2023-01-22T16:12:35.145Z,102521.97
2023-01-22T16:15:13.750Z,102519.50
2023-01-22T16:17:42.614Z,102523.03
2023-01-22T16:20:17.562Z,102517.47
2023-01-22T16:22:46.957Z,102525.84
2023-01-22T16:25:16.505Z,102531.13
2023-01-22T16:27:52.040Z,102527.50
2023-01-22T16:30:29.511Z,102520.53
2023-01-22T16:33:05.123Z,102526.44
2023-01-22T16:35:38.155Z,102525.66
2023-01-22T16:38:07.673Z,102535.37
2023-01-22T16:40:41.111Z,102535.28
2023-01-22T16:43:12.374Z,102530.78
2023-01-22T16:45:43.118Z,102537.38
2023-01-22T16:48:15.856Z,102520.97
2023-01-22T16:50:54.815Z,102531.34
2023-01-22T16:53:29.166Z,102519.69
2023-01-22T16:56:01.803Z,102535.75
2023-01-22T16:58:35.300Z,102545.78
2023-01-22T17:01:14.532Z,102541.03
2023-01-22T17:03:47.192Z,102544.13
2023-01-22T17:06:27.061Z,102523.53
2023-01-22T17:08:56.188Z,102542.09
2023-01-22T17:11:32.581Z,102539.69
2023-01-22T17:14:07.733Z,102546.38
2023-01-22T17:16:38.909Z,102542.34
2023-01-22T17:19:11.231Z,102546.66
2023-01-22T17:21:45.682Z,102542.22
2023-01-22T17:24:19.127Z,102557.28
2023-01-22T17:26:51.852Z,102557.06
2023-01-22T17:29:25.942Z,102552.84
2023-01-22T17:31:58.166Z,102559.59
2023-01-22T17:34:31.797Z,102557.09
2023-01-22T17:37:04.299Z,102552.88
2023-01-22T17:39:35.196Z,102556.25
2023-01-22T17:42:07.264Z,102549.47
2023-01-22T17:44:39.566Z,102558.53
2023-01-22T17:47:15.960Z,102556.06
2023-01-22T17:49:48.192Z,102554.41
2023-01-22T17:52:24.481Z,102554.88
2023-01-22T17:54:57.559Z,102553.31
2023-01-22T17:57:34.650Z,102557.41
2023-01-22T18:00:04.766Z,102560.91
2023-01-22T18:02:41.056Z,102550.50
2023-01-22T18:05:15.095Z,102553.97
2023-01-22T18:07:47.614Z,102550.34
2023-01-22T18:10:21.461Z,102556.41
2023-01-22T18:13:00.805Z,102558.03
2023-01-22T18:15:37.494Z,102556.81
2023-01-22T18:18:10.448Z,102555.66
2023-01-22T18:20:44.681Z,102553.03
2023-01-22T18:23:18.946Z,102554.53
2023-01-22T18:26:04.572Z,102552.50
2023-01-22T18:28:36.406Z,102556.97
2023-01-22T18:31:12.183Z,102561.78
2023-01-22T18:33:46.249Z,102575.22
2023-01-22T18:36:26.317Z,102565.94
2023-01-22T18:39:21.627Z,102570.53
2023-01-22T18:41:53.269Z,102567.22
2023-01-22T18:44:32.603Z,102572.41
2023-01-22T18:47:09.768Z,102573.88
2023-01-22T18:49:38.362Z,102582.19
2023-01-22T18:52:08.136Z,102578.50
2023-01-22T18:54:39.174Z,102573.00
2023-01-22T18:57:14.041Z,102582.06
2023-01-22T18:59:45.830Z,102568.91
2023-01-22T19:02:22.905Z,102578.22
2023-01-22T19:04:54.734Z,102581.50
2023-01-22T19:07:26.581Z,102577.88
2023-01-22T19:09:55.091Z,102588.31
2023-01-22T19:12:26.307Z,102579.00
2023-01-22T19:14:55.951Z,102584.72
2023-01-22T19:17:25.981Z,102581.94
2023-01-22T19:19:58.747Z,102581.34
2023-01-22T19:22:28.346Z,102588.06
2023-01-22T19:24:57.695Z,102581.22
2023-01-22T19:27:30.601Z,102588.94
2023-01-22T19:30:00.946Z,102586.09
2023-01-22T19:32:35.485Z,102592.03
2023-01-22T19:35:07.263Z,102597.28
2023-01-22T19:37:36.680Z,102595.50
2023-01-22T19:40:08.779Z,102601.97
2023-01-22T19:42:40.348Z,102593.88
2023-01-22T19:45:10.604Z,102608.50
2023-01-22T19:47:40.417Z,102604.53
2023-01-22T19:50:09.296Z,102610.41
2023-01-22T19:52:38.206Z,102607.75
2023-01-22T19:55:09.179Z,102612.22
2023-01-22T19:57:40.279Z,102614.44
2023-01-22T20:00:09.992Z,102616.84
2023-01-22T20:02:40.715Z,102630.56
2023-01-22T20:05:13.486Z,102626.31
2023-01-22T20:07:47.080Z,102628.00
2023-01-22T20:10:19.447Z,102628.97
2023-01-22T20:12:50.741Z,102622.81
2023-01-22T20:15:19.082Z,102621.00
2023-01-22T20:17:50.428Z,102627.19
2023-01-22T20:20:19.317Z,102623.69
2023-01-22T20:22:48.997Z,102628.84
2023-01-22T20:25:18.493Z,102626.28
2023-01-22T20:27:51.112Z,102620.31
2023-01-22T20:30:20.472Z,102609.81
2023-01-22T20:32:48.844Z,102634.81
2023-01-22T20:35:19.177Z,102632.41
2023-01-22T20:37:47.781Z,102624.47
2023-01-22T20:40:16.594Z,102621.31
2023-01-22T20:42:49.315Z,102628.09
2023-01-22T20:45:18.333Z,102620.22
2023-01-22T20:47:46.612Z,102639.09
2023-01-22T20:50:14.655Z,102622.16
2023-01-22T20:52:42.720Z,102633.94
2023-01-22T20:55:11.211Z,102627.44
2023-01-22T20:57:39.893Z,102633.22
2023-01-22T21:00:09.986Z,102626.50
2023-01-22T21:02:37.980Z,102639.22
2023-01-22T21:05:05.929Z,102637.47
2023-01-22T21:07:34.030Z,102639.09
2023-01-22T21:10:02.043Z,102634.06
2023-01-22T21:12:30.903Z,102634.00
2023-01-22T21:14:59.259Z,102642.56
2023-01-22T21:17:31.727Z,102625.25
2023-01-22T21:19:59.853Z,102650.09
2023-01-22T21:22:27.992Z,102649.19
2023-01-22T21:24:58.723Z,102637.19
2023-01-22T21:27:27.023Z,102646.66
2023-01-22T21:29:55.561Z,102652.63
2023-01-22T21:32:23.433Z,102643.22
2023-01-22T21:34:51.684Z,102648.38
2023-01-22T21:37:22.491Z,102652.63
2023-01-22T21:39:50.321Z,102650.87
2023-01-22T21:42:36.995Z,102646.50
2023-01-22T21:45:23.961Z,102652.56
2023-01-22T21:47:52.244Z,102647.34
2023-01-22T21:50:20.534Z,102651.09
2023-01-22T21:52:54.556Z,102656.06
2023-01-22T21:55:23.766Z,102650.81
2023-01-22T21:57:55.277Z,102649.16
2023-01-22T22:00:23.536Z,102647.25
2023-01-22T22:02:53.049Z,102648.34
2023-01-22T22:05:20.931Z,102642.97
2023-01-22T22:07:48.716Z,102643.87
2023-01-22T22:10:18.198Z,102658.41
2023-01-22T22:12:49.228Z,102646.25
2023-01-22T22:15:20.461Z,102652.28
2023-01-22T22:17:49.253Z,102660.09
2023-01-22T22:20:18.102Z,102657.50
2023-01-22T22:22:46.223Z,102660.06
2023-01-22T22:25:14.128Z,102666.06
2023-01-22T22:27:42.448Z,102664.31
2023-01-22T22:30:11.351Z,102656.59
2023-01-22T22:32:39.431Z,102665.19
2023-01-22T22:35:10.651Z,102664.44
2023-01-22T22:37:38.454Z,102673.00
2023-01-22T22:40:06.738Z,102667.88
2023-01-22T22:42:34.922Z,102669.53
2023-01-22T22:45:02.830Z,102663.53
2023-01-22T22:47:31.290Z,102664.31
2023-01-22T22:50:03.003Z,102676.50
2023-01-22T22:52:31.797Z,102675.62
2023-01-22T22:55:01.704Z,102667.88
2023-01-22T22:57:30.953Z,102665.34
2023-01-22T22:59:59.833Z,102668.72
2023-01-22T23:02:27.701Z,102671.34
2023-01-22T23:04:55.417Z,102681.78
2023-01-22T23:07:23.656Z,102651.44
2023-01-22T23:09:51.488Z,102672.31
2023-01-22T23:12:19.241Z,102680.00
2023-01-22T23:14:50.372Z,102671.44
2023-01-22T23:17:21.244Z,102674.88
2023-01-22T23:19:49.581Z,102680.00
2023-01-22T23:22:17.455Z,102674.97
2023-01-22T23:24:46.818Z,102685.16
2023-01-22T23:27:15.029Z,102686.06
2023-01-22T23:29:42.807Z,102673.97
2023-01-22T23:32:10.848Z,102690.31
2023-01-22T23:34:39.075Z,102691.97
2023-01-22T23:37:06.755Z,102686.81
2023-01-22T23:39:34.549Z,102691.97
2023-01-22T23:42:02.713Z,102692.06
2023-01-22T23:44:30.508Z,102693.63
2023-01-22T23:46:58.173Z,102699.97
2023-01-22T23:49:26.418Z,102700.59
2023-01-22T23:51:54.210Z,102700.63
2023-01-22T23:54:22.038Z,102701.50
2023-01-22T23:56:53.117Z,102697.06
2023-01-22T23:59:20.875Z,102699.72
